Hlavní strana
METAR-TAF:

METAR-TAF

Letiště :

Hoonah, Aljaška, Spojené státy americké

zeměpisná šířka: 58-07N, zeměpisná délka: 135-27W, výška: 0 m

Aktuální stav počasí

Zpráva byla vytvořena před 34 minutami, v 06:56 UTC
Bezvětří
Teplota 7°C
Vlhkost vzduchu 100%
Tlak 1018 hPa
Viditelnost: 6.4 km
Polojasno ve výšce 200 ft
Zataženo ve výšce 4400 ft
kouřmo

METAR: PAOH 240656Z AUTO 00000KT 4SM BR SCT002 OVC044 07/07 A3006 RMK AO2 SLP182 T00670067

Čas: 23:30 (07:30 UTC)


TAF: chybějící

Stav a předpovědi počasí z více než 4 000 letišť (zprávy METAR a TAF).

Červené a žluté tečky na mapě představují dostupné meteorologické stanice.

Když kurzor umístíte na tečku, zobrazí se název stanice.

Pak kliknutím zobrazíte stav a předpověď počasí.

Chcete-li změnit mapu, kliknutím na zelené tlačítko se znaménkem +mapu přiblížíte, kliknutím na zelené tlačítko se znaménkem – mapu oddálíte a kliknutím na zelené šipky přejdete na sousední mapy.


METAR-TAF: